Time;durP1;ratioP1;P1;durP2;ratioP2;P2;SDS_P1;SDS_P2;PMS_P1;PMS_P2;Temp;Humidity;BMP_temperature;BMP_pressure;BME280_temperature;BME280_humidity;BME280_pressure;Samples;Min_cycle;Max_cycle;Signal;HPM_P1;HPM_P2
2022/08/15 00:00:56;;;;;;;9.40;5.35;;;27.30;94.90;;;;;;5053617;28;20120;-71
2022/08/15 00:03:41;;;;;;;10.38;4.60;;;27.30;95.20;;;;;;5053503;28;20374;-71
2022/08/15 00:06:11;;;;;;;10.30;4.57;;;27.30;96.30;;;;;;5053338;28;20143;-71
2022/08/15 00:08:45;;;;;;;7.85;3.45;;;27.30;96.90;;;;;;5053012;28;20188;-72
2022/08/15 00:11:17;;;;;;;9.63;4.00;;;27.20;98.20;;;;;;5053523;28;20025;-71
2022/08/15 00:13:52;;;;;;;7.38;4.03;;;27.20;98.00;;;;;;5053240;28;20021;-71
2022/08/15 00:16:18;;;;;;;8.23;3.85;;;27.10;98.20;;;;;;5053363;28;20054;-71
2022/08/15 00:18:45;;;;;;;;;;;27.10;99.90;;;;;;5053377;28;20448;-71
2022/08/15 00:21:11;;;;;;;6.90;3.63;;;27.00;99.90;;;;;;5051481;28;19905;-71
2022/08/15 00:23:40;;;;;;;7.38;3.80;;;27.00;99.90;;;;;;5052726;28;20025;-71
2022/08/15 00:26:08;;;;;;;9.98;3.80;;;27.00;99.90;;;;;;5052641;28;20165;-71
2022/08/15 00:28:34;;;;;;;9.70;3.90;;;27.00;99.90;;;;;;5051683;28;20033;-71
2022/08/15 00:31:00;;;;;;;12.65;4.18;;;27.00;99.90;;;;;;5052750;28;20112;-72
2022/08/15 00:33:28;;;;;;;7.75;3.72;;;26.90;99.90;;;;;;5052853;28;20043;-71
2022/08/15 00:35:55;;;;;;;7.45;4.20;;;26.80;99.90;;;;;;5052842;28;20481;-71
2022/08/15 00:38:23;;;;;;;12.02;4.13;;;26.80;99.90;;;;;;5052766;28;20025;-71
2022/08/15 00:43:53;;;;;;;8.63;4.00;;;26.80;99.90;;;;;;5052543;28;20060;-71
2022/08/15 00:46:20;;;;;;;10.45;4.63;;;26.80;99.90;;;;;;5052612;28;20060;-71
2022/08/15 00:48:46;;;;;;;;;;;26.70;99.90;;;;;;5052932;28;20134;-70
2022/08/15 00:51:30;;;;;;;10.20;4.68;;;26.70;99.90;;;;;;5052189;28;20013;-71
2022/08/15 00:54:05;;;;;;;8.77;4.55;;;26.50;99.90;;;;;;5052320;28;20036;-71
2022/08/15 00:56:40;;;;;;;11.30;4.70;;;26.50;99.90;;;;;;5052103;28;20029;-70
2022/08/15 00:59:11;;;;;;;9.82;4.75;;;26.40;99.90;;;;;;5052210;28;20093;-71
2022/08/15 01:01:38;;;;;;;9.38;4.35;;;26.40;99.90;;;;;;5051739;28;20032;-70
2022/08/15 01:04:08;;;;;;;8.88;4.57;;;26.30;99.90;;;;;;5051717;28;20036;-71
2022/08/15 01:06:37;;;;;;;8.63;4.25;;;26.40;99.90;;;;;;5052022;28;20032;-70
2022/08/15 01:09:06;;;;;;;9.30;4.68;;;26.30;99.90;;;;;;5051714;28;20442;-71
2022/08/15 01:11:37;;;;;;;10.15;4.70;;;26.20;99.90;;;;;;5050413;28;20417;-70
2022/08/15 01:14:07;;;;;;;8.38;4.63;;;26.20;99.90;;;;;;5051779;28;20096;-70
2022/08/15 01:16:34;;;;;;;9.40;4.80;;;26.20;99.90;;;;;;5051544;28;20045;-70
2022/08/15 01:19:04;;;;;;;10.07;4.47;;;26.20;99.90;;;;;;5051687;28;20025;-70
2022/08/15 01:21:38;;;;;;;10.70;4.70;;;26.10;99.90;;;;;;5051675;28;20479;-70
2022/08/15 01:24:26;;;;;;;10.23;4.70;;;26.10;99.90;;;;;;5050367;28;20028;-70
2022/08/15 01:26:55;;;;;;;9.80;4.85;;;26.10;99.90;;;;;;5051041;28;20122;-70
2022/08/15 01:29:22;;;;;;;7.85;4.38;;;26.10;99.90;;;;;;5051148;28;20063;-70
2022/08/15 01:31:48;;;;;;;10.90;4.88;;;26.10;99.90;;;;;;5051200;28;20017;-70
2022/08/15 01:34:15;;;;;;;11.43;5.03;;;26.10;99.90;;;;;;5051235;28;20354;-70
2022/08/15 01:36:41;;;;;;;8.45;4.70;;;26.10;99.90;;;;;;5051189;28;20029;-70
2022/08/15 01:39:22;;;;;;;10.65;4.53;;;26.10;99.90;;;;;;5051244;28;20373;-70
2022/08/15 01:42:01;;;;;;;10.73;4.70;;;26.20;99.90;;;;;;5051263;28;20381;-70
2022/08/15 01:44:44;;;;;;;12.30;4.90;;;26.20;99.90;;;;;;5050957;28;20025;-70
2022/08/15 01:47:15;;;;;;;8.65;4.68;;;26.20;99.90;;;;;;5051073;28;20041;-70
2022/08/15 01:50:09;;;;;;;8.25;4.50;;;26.20;99.90;;;;;;5051080;28;20109;-70
2022/08/15 01:52:50;;;;;;;14.45;5.10;;;26.20;99.90;;;;;;5050750;28;20061;-70
2022/08/15 01:55:20;;;;;;;8.27;4.50;;;26.20;99.90;;;;;;5050581;28;20053;-70
2022/08/15 01:57:47;;;;;;;9.02;4.22;;;26.20;99.90;;;;;;5050698;28;20086;-70
2022/08/15 02:00:14;;;;;;;;;;;26.20;99.90;;;;;;5051189;28;20112;-70
2022/08/15 02:02:41;;;;;;;10.18;4.80;;;26.10;99.90;;;;;;5049145;28;20257;-70
2022/08/15 02:05:08;;;;;;;11.65;4.47;;;26.10;99.90;;;;;;5050819;28;20020;-70
2022/08/15 02:07:36;;;;;;;;;;;26.10;99.90;;;;;;5049904;28;20354;-70
2022/08/15 02:10:04;;;;;;;7.35;4.38;;;26.10;99.90;;;;;;5050611;28;19917;-70
2022/08/15 02:12:36;;;;;;;10.57;4.25;;;26.10;99.90;;;;;;5050496;28;20381;-70
2022/08/15 02:15:12;;;;;;;13.68;4.72;;;26.10;99.90;;;;;;5050420;28;20073;-71
2022/08/15 02:17:39;;;;;;;11.13;4.38;;;26.10;99.90;;;;;;5050677;28;20350;-70
2022/08/15 02:20:06;;;;;;;9.90;4.38;;;26.10;99.90;;;;;;5050798;28;20037;-70
2022/08/15 02:22:32;;;;;;;10.43;4.30;;;26.10;99.90;;;;;;5050293;28;20108;-70
2022/08/15 02:25:00;;;;;;;9.77;4.55;;;26.10;99.90;;;;;;5050352;28;20495;-70
2022/08/15 02:27:30;;;;;;;10.18;4.45;;;26.10;99.90;;;;;;5049981;28;20053;-70
2022/08/15 02:29:56;;;;;;;10.15;4.50;;;26.00;99.90;;;;;;5050239;28;20029;-70
2022/08/15 02:32:22;;;;;;;9.07;4.30;;;26.00;99.90;;;;;;5050221;28;20021;-70
2022/08/15 02:34:48;;;;;;;8.98;4.30;;;26.00;99.90;;;;;;5050217;28;20369;-69
2022/08/15 02:37:19;;;;;;;9.80;5.20;;;25.90;99.90;;;;;;5049875;28;20025;-70
2022/08/15 02:39:51;;;;;;;11.88;4.72;;;25.90;99.90;;;;;;5050078;28;20139;-70
2022/08/15 02:42:19;;;;;;;11.88;5.45;;;25.80;99.90;;;;;;5049915;28;20116;-70
2022/08/15 02:44:49;;;;;;;11.55;5.25;;;25.70;99.90;;;;;;5049787;28;20029;-70
2022/08/15 02:47:16;;;;;;;11.25;5.75;;;25.60;99.90;;;;;;5050534;28;20025;-70
2022/08/15 02:49:43;;;;;;;11.10;5.47;;;25.60;99.90;;;;;;5049942;28;20470;-69
2022/08/15 02:52:10;;;;;;;12.70;5.07;;;25.50;99.90;;;;;;5049829;28;20036;-69
2022/08/15 02:54:37;;;;;;;9.85;5.00;;;25.50;99.90;;;;;;5049635;28;20025;-70
2022/08/15 02:57:03;;;;;;;;;;;25.50;99.90;;;;;;5050451;28;20100;-70
2022/08/15 02:59:30;;;;;;;;;;;25.50;99.90;;;;;;5050142;28;19995;-70
2022/08/15 03:01:57;;;;;;;11.63;4.97;;;25.50;99.90;;;;;;5049764;28;19911;-70
2022/08/15 03:04:25;;;;;;;9.00;5.03;;;25.50;99.90;;;;;;5049850;28;20362;-70
2022/08/15 03:06:53;;;;;;;11.88;4.60;;;25.50;99.90;;;;;;5049351;28;20021;-70
2022/08/15 03:09:22;;;;;;;10.32;5.15;;;25.50;99.90;;;;;;5049768;28;20029;-70
2022/08/15 03:11:48;;;;;;;12.82;5.40;;;25.50;99.90;;;;;;5048297;28;20032;-70
2022/08/15 03:14:18;;;;;;;9.13;4.93;;;25.50;99.90;;;;;;5049840;28;20065;-69
2022/08/15 03:16:46;;;;;;;10.23;4.70;;;25.50;99.90;;;;;;5049479;28;20029;-70
2022/08/15 03:19:18;;;;;;;19.75;5.20;;;25.50;99.90;;;;;;5049496;28;20044;-70
2022/08/15 03:21:46;;;;;;;11.73;5.43;;;25.40;99.90;;;;;;5049391;28;20029;-70
2022/08/15 03:24:13;;;;;;;10.52;5.10;;;25.40;99.90;;;;;;5049527;28;20457;-70
2022/08/15 03:26:39;;;;;;;11.63;5.15;;;25.40;99.90;;;;;;5049237;28;20053;-70
2022/08/15 03:29:06;;;;;;;10.85;5.07;;;25.30;99.90;;;;;;5049565;28;20441;-70
2022/08/15 03:31:34;;;;;;;7.22;4.88;;;25.30;99.90;;;;;;5049600;28;20068;-70
2022/08/15 03:34:01;;;;;;;11.48;5.13;;;25.30;99.90;;;;;;5049490;28;20017;-70
2022/08/15 03:36:27;;;;;;;12.73;5.50;;;25.30;99.90;;;;;;5049722;28;20074;-71
2022/08/15 03:38:53;;;;;;;10.65;5.00;;;25.40;99.90;;;;;;5049472;28;20053;-71
2022/08/15 03:41:20;;;;;;;13.38;5.07;;;25.40;99.90;;;;;;5049309;28;20021;-70
2022/08/15 03:43:46;;;;;;;11.45;5.20;;;25.40;99.90;;;;;;5049359;28;20033;-70
2022/08/15 03:46:16;;;;;;;12.68;5.47;;;25.30;99.90;;;;;;5049462;28;20033;-70
2022/08/15 03:48:51;;;;;;;11.10;5.30;;;25.40;99.90;;;;;;5049198;28;20517;-71
2022/08/15 03:51:19;;;;;;;13.68;5.65;;;25.30;99.90;;;;;;5049570;28;20025;-71
2022/08/15 03:53:53;;;;;;;9.85;5.40;;;25.20;99.90;;;;;;5049378;28;20422;-70
2022/08/15 03:56:24;;;;;;;10.52;5.07;;;25.20;99.90;;;;;;5049581;28;20094;-70
2022/08/15 03:58:51;;;;;;;9.93;5.60;;;25.20;99.90;;;;;;5049290;28;20021;-70
2022/08/15 04:01:21;;;;;;;12.48;5.53;;;25.20;99.90;;;;;;5049609;28;20473;-70
2022/08/15 04:03:49;;;;;;;12.32;5.70;;;25.20;99.90;;;;;;5049263;28;20029;-70
2022/08/15 04:06:18;;;;;;;11.70;5.40;;;25.10;99.90;;;;;;5049155;28;20041;-70
2022/08/15 04:08:47;;;;;;;10.30;5.45;;;25.10;99.90;;;;;;5049044;28;20123;-71
2022/08/15 04:11:14;;;;;;;10.88;5.00;;;25.10;99.90;;;;;;5049629;28;20060;-71
2022/08/15 04:13:41;;;;;;;11.85;4.80;;;25.20;99.90;;;;;;5049203;28;20104;-70
2022/08/15 04:16:09;;;;;;;11.45;4.93;;;25.30;99.90;;;;;;5049183;28;20021;-70
2022/08/15 04:18:35;;;;;;;10.48;4.90;;;25.30;99.90;;;;;;5049275;28;20457;-70
2022/08/15 04:21:05;;;;;;;9.77;5.22;;;25.30;99.90;;;;;;5052600;28;20029;-70
2022/08/15 04:23:33;;;;;;;8.32;4.85;;;25.30;99.90;;;;;;5052752;28;20028;-70
2022/08/15 04:25:59;;;;;;;9.55;4.55;;;25.30;99.90;;;;;;5052143;28;20048;-71
2022/08/15 04:28:29;;;;;;;9.52;4.43;;;25.30;99.90;;;;;;5052409;28;20029;-71
2022/08/15 04:30:55;;;;;;;10.68;5.30;;;25.30;99.90;;;;;;5052910;28;20032;-71
2022/08/15 04:33:29;;;;;;;8.75;5.13;;;25.40;99.90;;;;;;5052781;28;20025;-71
2022/08/15 04:36:08;;;;;;;9.57;5.43;;;25.40;99.90;;;;;;5052688;28;20523;-70
2022/08/15 04:38:34;;;;;;;7.95;5.18;;;25.40;99.90;;;;;;5052547;28;20025;-70
2022/08/15 04:41:03;;;;;;;11.27;4.95;;;25.40;99.90;;;;;;5052586;28;20052;-70
2022/08/15 04:43:31;;;;;;;10.70;5.45;;;25.40;99.90;;;;;;5052026;28;20088;-70
2022/08/15 04:45:58;;;;;;;9.98;5.07;;;25.50;99.90;;;;;;5051970;28;20436;-70
2022/08/15 04:48:25;;;;;;;8.57;5.30;;;25.40;99.90;;;;;;5052114;28;20017;-70
2022/08/15 04:50:53;;;;;;;9.88;5.80;;;25.40;99.90;;;;;;5051978;28;20036;-69
2022/08/15 04:53:24;;;;;;;12.43;5.68;;;25.50;99.90;;;;;;5051943;28;20107;-69
2022/08/15 04:55:52;;;;;;;13.38;6.15;;;25.50;99.90;;;;;;5051941;28;20029;-70
2022/08/15 04:58:18;;;;;;;7.93;4.90;;;25.50;99.90;;;;;;5051880;28;20043;-70
2022/08/15 05:00:50;;;;;;;;;;;25.60;99.90;;;;;;5052327;28;20043;-70
2022/08/15 05:03:19;;;;;;;9.68;5.20;;;25.60;99.90;;;;;;5052049;28;20277;-69
2022/08/15 05:05:55;;;;;;;10.43;5.90;;;25.70;99.90;;;;;;5051695;28;20047;-70
2022/08/15 05:08:25;;;;;;;8.45;5.30;;;25.70;99.90;;;;;;5050096;28;20028;-70
2022/08/15 05:11:01;;;;;;;8.90;5.45;;;25.70;99.90;;;;;;5051989;28;20028;-70
2022/08/15 05:13:29;;;;;;;8.97;5.47;;;25.80;99.90;;;;;;5050271;28;20021;-70
2022/08/15 05:15:58;;;;;;;8.07;4.90;;;25.80;99.90;;;;;;5051444;28;20031;-70
2022/08/15 05:18:25;;;;;;;11.02;5.00;;;26.00;99.90;;;;;;5051465;28;20029;-70
2022/08/15 05:20:52;;;;;;;12.90;5.40;;;26.30;99.90;;;;;;5051488;28;20067;-70
2022/08/15 05:23:21;;;;;;;10.77;4.20;;;26.80;99.90;;;;;;5051470;28;20021;-71
2022/08/15 05:25:57;;;;;;;7.47;3.58;;;27.60;99.90;;;;;;5051235;28;20029;-70
2022/08/15 05:28:24;;;;;;;8.95;4.28;;;28.20;99.90;;;;;;5051478;28;20029;-70
2022/08/15 05:30:52;;;;;;;9.45;3.47;;;28.70;99.90;;;;;;5050185;28;20044;-70
2022/08/15 05:33:22;;;;;;;8.40;3.00;;;29.50;99.90;;;;;;5051337;28;20052;-70
2022/08/15 05:35:54;;;;;;;8.15;3.70;;;30.40;99.90;;;;;;5051386;28;20358;-70
2022/08/15 05:38:40;;;;;;;7.28;3.38;;;31.10;99.90;;;;;;5051498;28;20021;-71
2022/08/15 05:41:32;;;;;;;6.43;3.20;;;31.80;99.90;;;;;;5050707;28;20029;-71
2022/08/15 05:44:23;;;;;;;7.07;3.45;;;32.50;99.90;;;;;;5051369;28;20058;-70
2022/08/15 05:46:57;;;;;;;6.88;2.97;;;32.90;99.90;;;;;;5051414;28;20021;-71
2022/08/15 05:49:32;;;;;;;7.55;3.40;;;33.60;99.90;;;;;;5051308;28;20036;-71
2022/08/15 05:52:23;;;;;;;8.88;3.55;;;33.80;99.90;;;;;;5051020;28;20029;-70
2022/08/15 05:55:20;;;;;;;6.75;3.13;;;33.50;99.90;;;;;;5049454;28;20169;-70
2022/08/15 05:58:10;;;;;;;8.07;2.80;;;33.90;99.90;;;;;;5051010;28;20021;-71
2022/08/15 06:00:38;;;;;;;8.48;3.17;;;34.40;99.90;;;;;;5051021;28;20203;-71
2022/08/15 06:03:11;;;;;;;6.55;2.83;;;34.90;99.90;;;;;;5050653;28;20021;-71
2022/08/15 06:05:51;;;;;;;5.82;2.70;;;35.70;99.90;;;;;;5050547;28;20029;-70
2022/08/15 06:08:21;;;;;;;7.95;3.00;;;36.50;99.90;;;;;;5050522;28;20032;-69
2022/08/15 06:11:02;;;;;;;11.70;2.67;;;36.60;99.90;;;;;;5050440;28;20192;-70
2022/08/15 06:13:34;;;;;;;5.32;2.85;;;36.80;99.90;;;;;;5050506;28;20044;-70
2022/08/15 06:16:19;;;;;;;6.13;3.00;;;36.90;99.90;;;;;;5050635;28;20033;-70
2022/08/15 06:18:46;;;;;;;5.82;2.80;;;37.30;99.90;;;;;;5050383;28;20064;-71
2022/08/15 06:21:40;;;;;;;6.57;2.70;;;38.20;99.90;;;;;;5050523;28;20081;-71
2022/08/15 06:24:16;;;;;;;7.05;2.00;;;39.10;98.90;;;;;;5049091;28;20374;-71
2022/08/15 06:27:09;;;;;;;4.35;2.13;;;38.60;98.70;;;;;;5050443;28;20099;-71
2022/08/15 06:29:54;;;;;;;5.05;1.90;;;39.10;97.90;;;;;;5050730;28;20365;-71
2022/08/15 06:32:40;;;;;;;6.65;1.90;;;40.10;96.70;;;;;;5050506;28;20393;-71
2022/08/15 06:35:26;;;;;;;5.68;2.33;;;40.90;96.00;;;;;;5050423;28;20028;-70
2022/08/15 06:37:58;;;;;;;8.60;2.03;;;41.50;94.40;;;;;;5050519;28;20055;-72
2022/08/15 06:41:14;;;;;;;5.55;1.98;;;41.90;93.50;;;;;;5050781;28;20064;-71
2022/08/15 06:43:43;;;;;;;8.23;2.10;;;42.50;92.80;;;;;;5028010;28;20387;-71
2022/08/15 06:46:09;;;;;;;10.73;2.00;;;42.80;92.40;;;;;;5027963;28;20042;-71
2022/08/15 06:48:38;;;;;;;7.30;2.08;;;43.20;91.50;;;;;;5028261;28;20039;-71
2022/08/15 06:51:07;;;;;;;9.68;1.98;;;43.10;91.20;;;;;;5028048;28;20120;-71
2022/08/15 06:53:45;;;;;;;8.00;1.80;;;43.40;90.90;;;;;;5028226;28;20501;-71
2022/08/15 06:56:38;;;;;;;5.93;1.90;;;42.50;91.10;;;;;;5027992;28;20136;-71
2022/08/15 06:59:44;;;;;;;6.17;1.90;;;42.70;90.70;;;;;;5028122;28;20060;-71
2022/08/15 07:02:35;;;;;;;6.18;2.40;;;42.30;90.70;;;;;;5028425;28;20064;-71
2022/08/15 07:05:14;;;;;;;6.30;2.05;;;41.50;91.70;;;;;;5028202;28;20057;-70
2022/08/15 07:07:45;;;;;;;7.18;2.00;;;41.20;92.00;;;;;;5028211;28;20033;-71
2022/08/15 07:10:22;;;;;;;7.35;2.17;;;41.30;92.20;;;;;;5028091;28;20061;-71
2022/08/15 07:12:57;;;;;;;9.50;2.15;;;41.60;91.90;;;;;;5028068;28;20033;-71
2022/08/15 07:15:40;;;;;;;5.95;1.92;;;42.50;91.20;;;;;;5027736;28;20025;-71
2022/08/15 07:18:25;;;;;;;4.22;1.70;;;43.00;90.70;;;;;;5043218;28;20036;-71
2022/08/15 07:21:03;;;;;;;7.68;2.10;;;42.30;90.30;;;;;;5050256;28;20017;-71
2022/08/15 07:23:30;;;;;;;6.10;1.90;;;41.90;90.90;;;;;;5050143;28;20461;-71
2022/08/15 07:26:11;;;;;;;6.07;2.17;;;42.00;90.90;;;;;;5050082;28;20040;-70
2022/08/15 07:28:42;;;;;;;7.55;2.15;;;40.80;91.50;;;;;;5049923;28;20067;-71
2022/08/15 07:31:17;;;;;;;5.68;1.90;;;40.10;92.40;;;;;;5050114;28;20063;-71
2022/08/15 07:33:51;;;;;;;6.95;2.28;;;39.10;93.50;;;;;;5049979;28;20071;-70
2022/08/15 07:36:30;;;;;;;8.30;2.50;;;38.20;94.30;;;;;;5050041;28;20134;-70
2022/08/15 07:38:56;;;;;;;6.55;2.55;;;37.30;95.40;;;;;;5049568;28;20037;-70
2022/08/15 07:41:30;;;;;;;7.97;2.33;;;36.50;96.10;;;;;;5049524;28;20045;-70
2022/08/15 07:44:00;;;;;;;7.03;2.33;;;35.00;97.80;;;;;;5049610;28;20033;-70
2022/08/15 07:46:40;;;;;;;6.68;2.35;;;34.60;99.00;;;;;;5049816;28;20025;-70
2022/08/15 07:49:21;;;;;;;9.05;2.40;;;34.50;99.60;;;;;;5049308;28;20032;-70
2022/08/15 07:51:57;;;;;;;5.28;2.25;;;34.70;99.80;;;;;;5049818;28;20025;-70
2022/08/15 07:54:28;;;;;;;5.35;2.33;;;34.50;99.70;;;;;;5050624;28;20032;-70
2022/08/15 07:56:59;;;;;;;7.10;2.70;;;34.20;99.90;;;;;;5052768;28;20020;-70
2022/08/15 07:59:30;;;;;;;10.43;2.80;;;34.30;99.90;;;;;;5052750;28;20048;-70
2022/08/15 08:02:31;;;;;;;7.22;2.60;;;33.80;99.90;;;;;;5052610;28;20157;-70
2022/08/15 08:05:00;;;;;;;5.63;2.35;;;33.60;99.90;;;;;;5052449;28;20025;-70
2022/08/15 08:07:37;;;;;;;5.25;2.60;;;32.60;99.90;;;;;;5052474;28;20047;-70
2022/08/15 08:10:28;;;;;;;8.65;2.92;;;33.00;99.90;;;;;;5052563;28;20041;-70
2022/08/15 08:13:00;;;;;;;6.57;2.63;;;33.50;99.90;;;;;;5052905;28;20373;-70
2022/08/15 08:15:40;;;;;;;10.45;2.60;;;33.90;99.90;;;;;;5052794;28;20040;-70
2022/08/15 08:18:12;;;;;;;6.50;2.58;;;34.30;99.90;;;;;;5053703;28;20037;-70
2022/08/15 08:20:56;;;;;;;7.07;2.30;;;34.20;99.90;;;;;;5053506;28;20029;-71
2022/08/15 08:23:38;;;;;;;6.80;2.50;;;34.60;99.90;;;;;;5053966;28;20043;-71
2022/08/15 08:26:10;;;;;;;10.93;2.90;;;34.30;99.90;;;;;;5053815;28;20429;-71
2022/08/15 08:28:46;;;;;;;8.52;2.50;;;34.00;99.90;;;;;;5054063;28;20037;-71
2022/08/15 08:31:30;;;;;;;8.27;2.38;;;34.30;99.90;;;;;;5053856;28;20024;-71
2022/08/15 08:34:23;;;;;;;6.32;2.13;;;34.80;99.90;;;;;;5053573;28;20196;-70
2022/08/15 08:37:15;;;;;;;5.70;2.40;;;34.80;99.90;;;;;;5053444;28;20048;-71
2022/08/15 08:39:46;;;;;;;7.15;2.50;;;34.80;99.90;;;;;;5053867;28;20040;-71
2022/08/15 08:42:47;;;;;;;6.97;2.53;;;34.50;99.90;;;;;;5053535;28;20032;-71
2022/08/15 08:45:36;;;;;;;6.40;3.00;;;34.30;99.90;;;;;;5053252;28;20051;-71
2022/08/15 08:48:15;;;;;;;7.43;2.80;;;33.40;99.90;;;;;;5053821;28;20029;-71
2022/08/15 08:50:53;;;;;;;10.57;3.00;;;33.30;99.90;;;;;;5053219;28;20115;-71
2022/08/15 08:53:44;;;;;;;7.95;2.65;;;33.10;99.90;;;;;;5051727;28;20052;-71
2022/08/15 08:56:20;;;;;;;7.78;2.97;;;33.40;99.90;;;;;;5052961;28;20111;-71
2022/08/15 08:58:53;;;;;;;7.07;2.78;;;32.90;99.90;;;;;;5052833;28;20033;-71
2022/08/15 09:01:25;;;;;;;9.35;3.22;;;33.20;99.90;;;;;;5052908;28;20112;-71
2022/08/15 09:04:03;;;;;;;5.70;2.53;;;33.10;99.90;;;;;;5053191;28;20071;-71
2022/08/15 09:06:36;;;;;;;8.15;2.70;;;33.30;99.90;;;;;;5052713;28;20453;-71
2022/08/15 09:09:21;;;;;;;6.28;2.45;;;33.40;99.90;;;;;;5053402;28;20029;-71
2022/08/15 09:14:52;;;;;;;8.88;3.00;;;33.40;99.90;;;;;;5053115;28;19930;-71
2022/08/15 09:17:21;;;;;;;9.13;2.83;;;33.10;99.90;;;;;;5052896;28;20119;-71
2022/08/15 09:19:54;;;;;;;8.82;2.90;;;32.80;99.90;;;;;;5053240;28;20104;-71
2022/08/15 09:22:20;;;;;;;8.13;2.70;;;32.80;99.90;;;;;;5053132;28;20033;-71
2022/08/15 09:24:46;;;;;;;;;;;33.10;99.90;;;;;;5053420;28;20029;-71
2022/08/15 09:27:41;;;;;;;12.20;2.30;;;33.30;99.90;;;;;;5052388;28;19970;-71
2022/08/15 09:30:10;;;;;;;7.50;2.45;;;33.50;99.90;;;;;;5052939;28;20060;-72
2022/08/15 09:33:08;;;;;;;7.38;2.60;;;33.80;99.90;;;;;;5052598;28;20040;-71
2022/08/15 09:36:13;;;;;;;6.30;2.53;;;33.50;99.90;;;;;;5052914;28;20051;-71
2022/08/15 09:39:26;;;;;;;21.13;2.70;;;33.40;99.90;;;;;;5045791;28;20041;-71
2022/08/15 09:42:19;;;;;;;6.80;2.20;;;33.50;99.90;;;;;;5030043;28;20089;-71
2022/08/15 09:44:54;;;;;;;7.50;2.20;;;33.70;99.90;;;;;;5030270;28;20524;-72
2022/08/15 09:47:20;;;;;;;6.20;2.40;;;33.80;99.90;;;;;;5030467;28;20382;-72
2022/08/15 09:50:20;;;;;;;6.95;2.50;;;33.60;99.90;;;;;;5030017;28;20302;-71
2022/08/15 09:52:49;;;;;;;7.13;2.58;;;33.60;99.90;;;;;;5030373;28;20057;-71
2022/08/15 09:55:34;;;;;;;6.78;2.40;;;33.70;99.90;;;;;;5013363;28;20362;-71
2022/08/15 09:58:14;;;;;;;7.32;2.65;;;33.70;99.90;;;;;;5030578;28;20109;-71
2022/08/15 10:00:53;;;;;;;7.10;2.95;;;33.90;99.90;;;;;;5030426;28;20168;-71
2022/08/15 10:03:45;;;;;;;7.38;3.70;;;33.90;99.90;;;;;;5030152;28;20132;-71
2022/08/15 10:06:14;;;;;;;6.35;3.50;;;33.90;99.90;;;;;;5029835;28;20390;-71
2022/08/15 10:09:03;;;;;;;15.25;2.65;;;33.80;99.90;;;;;;5012738;28;20101;-71
2022/08/15 10:11:58;;;;;;;5.97;2.10;;;33.50;99.90;;;;;;5017538;28;20045;-71
2022/08/15 10:14:39;;;;;;;6.57;3.07;;;33.10;99.90;;;;;;5029833;28;20111;-71
2022/08/15 10:17:25;;;;;;;7.68;2.67;;;33.10;99.90;;;;;;5012741;28;20392;-71
2022/08/15 10:19:51;;;;;;;5.82;2.42;;;33.40;99.90;;;;;;5051313;28;20088;-71
2022/08/15 10:22:24;;;;;;;9.00;2.45;;;33.30;99.90;;;;;;5051425;28;20485;-71
2022/08/15 10:25:25;;;;;;;7.45;2.63;;;33.30;99.90;;;;;;5051694;28;20028;-71
2022/08/15 10:28:05;;;;;;;7.25;2.65;;;33.40;99.90;;;;;;5051411;28;20049;-71
2022/08/15 10:30:35;;;;;;;6.22;2.85;;;33.20;99.90;;;;;;5051729;28;20124;-71
2022/08/15 10:33:33;;;;;;;7.32;3.45;;;33.40;99.90;;;;;;5051621;28;20101;-71
2022/08/15 10:36:14;;;;;;;5.45;2.97;;;33.40;99.90;;;;;;5051602;28;20135;-71
2022/08/15 10:39:02;;;;;;;6.78;3.63;;;33.40;99.90;;;;;;5051440;28;20025;-71
2022/08/15 10:41:51;;;;;;;10.68;3.55;;;33.60;99.90;;;;;;5051192;28;20400;-70
2022/08/15 10:44:28;;;;;;;10.40;3.90;;;33.60;99.90;;;;;;5051544;28;20090;-71
2022/08/15 10:47:01;;;;;;;9.15;3.20;;;33.60;99.90;;;;;;5051397;28;20017;-71
2022/08/15 10:49:44;;;;;;;9.38;2.47;;;33.70;99.90;;;;;;5051521;28;20040;-71
2022/08/15 10:52:19;;;;;;;7.13;2.53;;;33.70;99.90;;;;;;5051344;28;20464;-71
2022/08/15 10:55:03;;;;;;;5.47;2.33;;;33.70;99.90;;;;;;5050316;28;20029;-71
2022/08/15 10:57:46;;;;;;;7.18;2.30;;;33.80;99.90;;;;;;5051264;28;20036;-71
2022/08/15 11:00:37;;;;;;;6.53;2.55;;;33.70;99.90;;;;;;5049984;28;20444;-70
2022/08/15 11:03:07;;;;;;;5.55;2.40;;;33.90;99.90;;;;;;5051080;28;20477;-72
2022/08/15 11:05:34;;;;;;;5.13;2.33;;;33.80;99.90;;;;;;5051317;28;20117;-71
2022/08/15 11:08:00;;;;;;;6.80;2.30;;;33.70;99.90;;;;;;5050898;28;20354;-71
2022/08/15 11:10:27;;;;;;;;;;;33.90;99.90;;;;;;5051152;28;20037;-71
2022/08/15 11:13:03;;;;;;;6.97;2.67;;;33.50;99.90;;;;;;5050927;28;20325;-70
2022/08/15 11:15:44;;;;;;;6.57;2.30;;;33.30;99.90;;;;;;5050838;28;20017;-70
2022/08/15 11:18:10;;;;;;;6.20;2.20;;;33.20;99.90;;;;;;5050657;28;20037;-70
2022/08/15 11:20:46;;;;;;;7.35;2.40;;;33.30;99.90;;;;;;5050643;28;20036;-71
2022/08/15 11:23:28;;;;;;;;;;;33.50;99.90;;;;;;5051359;28;20039;-71
2022/08/15 11:25:56;;;;;;;5.25;2.60;;;33.40;99.90;;;;;;5050824;28;19948;-71
2022/08/15 11:28:25;;;;;;;6.55;2.40;;;33.40;99.90;;;;;;5050203;28;20049;-71
2022/08/15 11:31:12;;;;;;;6.32;2.47;;;33.40;99.90;;;;;;5053170;28;20506;-71
2022/08/15 11:33:45;;;;;;;11.90;2.28;;;33.00;99.90;;;;;;5055074;28;20020;-71
2022/08/15 11:36:19;;;;;;;7.22;2.58;;;33.10;99.90;;;;;;5054638;28;20466;-70
2022/08/15 11:38:55;;;;;;;7.07;2.42;;;33.00;99.90;;;;;;5054674;28;20079;-71
2022/08/15 11:41:27;;;;;;;5.97;2.38;;;33.20;99.90;;;;;;5054606;28;20109;-70
2022/08/15 11:43:57;;;;;;;7.15;2.60;;;33.30;99.90;;;;;;5054513;28;20040;-71
2022/08/15 11:46:25;;;;;;;7.07;2.60;;;33.00;99.90;;;;;;5054325;28;20029;-72
2022/08/15 11:49:11;;;;;;;7.57;2.50;;;33.10;99.90;;;;;;5054466;28;20432;-72
2022/08/15 11:51:46;;;;;;;7.68;2.90;;;32.90;99.90;;;;;;5054658;28;20033;-71
2022/08/15 11:54:12;;;;;;;7.72;2.38;;;32.90;99.90;;;;;;5054900;28;20025;-71
2022/08/15 11:56:55;;;;;;;5.40;2.50;;;32.60;99.90;;;;;;5054588;28;20028;-71
2022/08/15 11:59:40;;;;;;;7.70;3.25;;;32.50;99.90;;;;;;5054707;28;20024;-71
2022/08/15 12:02:20;;;;;;;5.55;2.33;;;32.70;99.90;;;;;;5054343;28;20442;-71
2022/08/15 12:04:49;;;;;;;5.80;2.95;;;32.80;99.90;;;;;;5054537;28;20036;-71
2022/08/15 12:07:23;;;;;;;10.40;2.90;;;33.10;99.90;;;;;;5054344;28;20028;-71
2022/08/15 12:10:40;;;;;;;8.82;2.70;;;33.10;99.90;;;;;;5054275;28;20124;-71
2022/08/15 12:13:07;;;;;;;5.75;2.42;;;33.20;99.90;;;;;;5031932;28;20530;-71
2022/08/15 12:15:33;;;;;;;15.30;2.90;;;32.80;99.90;;;;;;5031744;28;20026;-71
2022/08/15 12:18:13;;;;;;;6.07;2.75;;;32.70;99.90;;;;;;5031731;28;20037;-71
2022/08/15 12:21:05;;;;;;;5.63;2.38;;;32.70;99.90;;;;;;5031705;28;20039;-71
2022/08/15 12:23:54;;;;;;;4.60;2.45;;;32.80;99.90;;;;;;5029747;28;20046;-71
2022/08/15 12:26:23;;;;;;;10.38;2.60;;;32.90;99.90;;;;;;5031804;28;20049;-71
2022/08/15 12:28:49;;;;;;;6.25;3.10;;;33.20;99.90;;;;;;5031698;28;20053;-71
2022/08/15 12:31:34;;;;;;;7.93;2.53;;;33.00;99.90;;;;;;5031292;28;20065;-71
2022/08/15 12:34:09;;;;;;;8.60;3.22;;;32.90;99.90;;;;;;5031707;28;20047;-71
2022/08/15 12:36:35;;;;;;;9.02;3.00;;;32.80;99.90;;;;;;5031291;28;20190;-71
2022/08/15 12:39:02;;;;;;;10.52;3.30;;;32.80;99.90;;;;;;5031102;28;20022;-71
2022/08/15 12:41:38;;;;;;;7.22;3.00;;;32.70;99.90;;;;;;5030513;28;20140;-70
2022/08/15 12:44:05;;;;;;;8.73;2.72;;;32.80;99.90;;;;;;5031529;28;20033;-71
2022/08/15 12:46:32;;;;;;;5.55;2.60;;;32.90;99.90;;;;;;5031549;28;20112;-71
2022/08/15 12:48:59;;;;;;;8.88;2.63;;;32.80;99.90;;;;;;5037221;28;20040;-71
2022/08/15 12:51:26;;;;;;;5.88;2.85;;;32.70;99.90;;;;;;5053197;28;20036;-71
2022/08/15 12:53:53;;;;;;;5.22;3.13;;;32.70;99.90;;;;;;5053434;28;20021;-71
2022/08/15 12:56:19;;;;;;;10.15;3.85;;;32.70;99.90;;;;;;5053097;28;20029;-71
2022/08/15 12:58:45;;;;;;;5.63;2.70;;;32.70;99.90;;;;;;5053163;28;20044;-71
2022/08/15 13:01:12;;;;;;;7.07;2.45;;;32.80;99.90;;;;;;5052988;28;20059;-71
2022/08/15 13:03:44;;;;;;;4.80;2.47;;;32.90;99.90;;;;;;5053240;28;20021;-71
2022/08/15 13:06:34;;;;;;;8.98;2.55;;;33.00;99.90;;;;;;5052994;28;20060;-72
2022/08/15 13:09:00;;;;;;;4.95;2.33;;;32.80;99.90;;;;;;5053197;28;20032;-71
2022/08/15 13:11:25;;;;;;;;;;;33.00;99.90;;;;;;5053375;28;20076;-71
2022/08/15 13:13:52;;;;;;;9.07;2.85;;;32.70;99.90;;;;;;5052942;28;19904;-71
2022/08/15 13:16:18;;;;;;;8.27;2.90;;;32.80;99.90;;;;;;5052774;28;20098;-71
2022/08/15 13:18:45;;;;;;;7.25;2.75;;;32.90;99.90;;;;;;5052780;28;20029;-71
2022/08/15 13:23:55;;;;;;;8.07;2.50;;;32.60;99.90;;;;;;5052997;28;20110;-71
2022/08/15 13:26:24;;;;;;;6.45;2.50;;;32.50;99.90;;;;;;5052568;28;20052;-71
2022/08/15 13:28:53;;;;;;;5.85;2.33;;;32.40;99.90;;;;;;5052311;28;20052;-71
2022/08/15 13:31:20;;;;;;;6.50;2.47;;;32.20;99.90;;;;;;5052605;28;20453;-71
2022/08/15 13:33:47;;;;;;;6.03;2.55;;;32.30;99.90;;;;;;5052610;28;20025;-70